createdAt,value
2023-05-21T00:00:59.968Z,14.4
2023-05-21T00:11:38.684Z,14.29
2023-05-21T00:22:17.248Z,14.26
2023-05-21T00:27:36.620Z,14.28
2023-05-21T00:38:14.621Z,14.19
2023-05-21T00:43:33.414Z,14.1
2023-05-21T00:48:52.900Z,13.97
2023-05-21T00:54:11.841Z,13.88
2023-05-21T00:59:41.580Z,13.86
2023-05-21T01:04:51.108Z,13.91
2023-05-21T01:10:10.220Z,13.92
2023-05-21T01:20:48.873Z,13.74
2023-05-21T01:26:08.234Z,13.72
2023-05-21T01:31:27.294Z,13.71
2023-05-21T01:36:46.414Z,13.62
2023-05-21T01:42:05.225Z,13.54
2023-05-21T01:47:24.373Z,13.51
2023-05-21T01:52:43.560Z,13.5
2023-05-21T02:03:21.316Z,13.37
2023-05-21T02:08:40.911Z,13.31
2023-05-21T02:14:00.537Z,13.34
2023-05-21T02:19:19.799Z,13.3
2023-05-21T02:24:39.021Z,13.26
2023-05-21T02:29:58.632Z,13.27
2023-05-21T02:35:17.585Z,13.28
2023-05-21T02:40:37.212Z,13.28
2023-05-21T02:45:56.736Z,13.28
2023-05-21T02:56:35.137Z,13.28
2023-05-21T03:01:54.110Z,13.28
2023-05-21T03:07:13.121Z,13.23
2023-05-21T03:12:32.606Z,13.17
2023-05-21T03:17:51.352Z,13.13
2023-05-21T03:23:10.668Z,13.04
2023-05-21T03:28:29.863Z,12.99
2023-05-21T03:39:09.641Z,12.92
2023-05-21T03:44:28.487Z,12.92
2023-05-21T03:55:06.934Z,12.83
2023-05-21T04:00:26.391Z,12.88
2023-05-21T04:05:46.059Z,12.99
2023-05-21T04:11:05.177Z,12.93
2023-05-21T04:21:44.532Z,12.86
2023-05-21T04:27:03.043Z,12.82
2023-05-21T04:37:41.849Z,12.96
2023-05-21T04:43:00.675Z,12.86
2023-05-21T04:53:38.727Z,13.07
2023-05-21T04:58:57.959Z,13.14
2023-05-21T05:04:17.166Z,13.34
2023-05-21T05:09:35.699Z,13.53
2023-05-21T05:15:20.965Z,13.94
2023-05-21T05:20:40.034Z,13.89
2023-05-21T05:25:58.907Z,14.1
2023-05-21T05:36:37.238Z,14.81
2023-05-21T05:41:56.326Z,15.09
2023-05-21T05:52:34.196Z,15.6
2023-05-21T05:57:53.660Z,15.77
2023-05-21T06:03:12.789Z,16.03
2023-05-21T06:08:31.942Z,16.37
2023-05-21T06:13:51.059Z,16.71
2023-05-21T06:19:10.243Z,17.29
2023-05-21T06:24:29.638Z,17.91
2023-05-21T06:35:07.842Z,18.21
2023-05-21T06:41:41.974Z,18.5
2023-05-21T06:51:06.001Z,18.77
2023-05-21T06:56:23.972Z,18.98
2023-05-21T07:01:42.956Z,19.37
2023-05-21T07:07:02.586Z,19.68
2023-05-21T07:17:40.715Z,19.85
2023-05-21T07:23:00.025Z,20.26
2023-05-21T07:33:38.012Z,20.84
2023-05-21T07:38:56.810Z,21.07
2023-05-21T07:49:34.855Z,21.63
2023-05-21T07:54:53.918Z,21.53
2023-05-21T08:00:13.430Z,21.83
2023-05-21T08:05:32.667Z,22.24
2023-05-21T08:16:10.383Z,22.65
2023-05-21T08:21:29.027Z,22.6
2023-05-21T08:26:48.592Z,22.56
2023-05-21T08:32:07.191Z,22.46
2023-05-21T08:37:26.242Z,22.92
2023-05-21T08:42:45.780Z,22.86
2023-05-21T08:48:05.180Z,23.06
2023-05-21T08:58:43.511Z,23.07
2023-05-21T09:04:12.588Z,23.17
2023-05-21T09:14:40.961Z,23.53
2023-05-21T09:19:59.950Z,23.64
2023-05-21T09:25:18.810Z,23.54
2023-05-21T09:30:38.498Z,23.53
2023-05-21T09:35:57.412Z,23.45
2023-05-21T09:41:18.868Z,23.64
2023-05-21T09:51:54.701Z,24.26
2023-05-21T09:57:13.862Z,24.26
2023-05-21T10:07:52.026Z,24.56
2023-05-21T10:13:10.907Z,24.63
2023-05-21T10:18:30.440Z,24.68
2023-05-21T10:23:59.202Z,25.07
2023-05-21T10:34:27.781Z,24.95
2023-05-21T10:39:47.490Z,24.9
2023-05-21T10:50:26.115Z,25.05
2023-05-21T10:55:45.238Z,25.28
2023-05-21T11:01:04.564Z,25.61
2023-05-21T11:06:23.416Z,25.84
2023-05-21T11:17:01.508Z,25.82
2023-05-21T11:22:20.210Z,25.62
2023-05-21T11:32:58.470Z,25.89
2023-05-21T11:38:17.981Z,26.11
2023-05-21T11:43:37.536Z,25.98
2023-05-21T11:48:57.110Z,25.86
2023-05-21T11:54:16.439Z,26.04
2023-05-21T11:59:35.581Z,26.18
2023-05-21T12:04:54.702Z,26.21
2023-05-21T12:15:32.704Z,26.16
2023-05-21T12:20:51.359Z,26.51
2023-05-21T12:31:29.471Z,26.95
2023-05-21T12:36:48.697Z,27.34
2023-05-21T12:42:07.621Z,27.4
2023-05-21T12:47:27.298Z,27.27
2023-05-21T12:58:05.876Z,27.03
2023-05-21T13:03:24.801Z,26.51
2023-05-21T13:14:12.927Z,26.4
2023-05-21T13:19:22.944Z,26.51
2023-05-21T13:30:01.021Z,26.37
2023-05-21T13:35:19.845Z,26.31
2023-05-21T13:40:39.317Z,26.34
2023-05-21T13:45:58.289Z,26.32
2023-05-21T13:56:37.068Z,26.25
2023-05-21T14:01:56.587Z,26.55
2023-05-21T14:07:15.367Z,26.83
2023-05-21T14:12:34.457Z,26.91
2023-05-21T14:23:13.185Z,27.04
2023-05-21T14:28:32.695Z,27.07
2023-05-21T14:33:52.719Z,26.72
2023-05-21T14:39:11.727Z,26.63
2023-05-21T14:44:31.769Z,26.47
2023-05-21T14:55:09.097Z,26.07
2023-05-21T15:00:28.246Z,25.8
2023-05-21T15:05:47.704Z,25.56
2023-05-21T15:11:07.213Z,25.47
2023-05-21T15:16:26.496Z,25.53
2023-05-21T15:21:45.265Z,25.5
2023-05-21T15:27:04.363Z,25.28
2023-05-21T15:37:43.404Z,24.98
2023-05-21T15:43:02.765Z,24.95
2023-05-21T15:53:41.115Z,24.87
2023-05-21T15:58:59.999Z,24.88
2023-05-21T16:04:19.528Z,24.98
2023-05-21T16:09:38.530Z,25.01
2023-05-21T16:14:57.995Z,25.01
2023-05-21T16:20:17.356Z,24.94
2023-05-21T16:30:55.624Z,24.83
2023-05-21T16:36:16.350Z,24.87
2023-05-21T16:41:34.018Z,24.88
2023-05-21T16:46:52.776Z,24.87
2023-05-21T16:52:11.473Z,24.9
2023-05-21T16:57:30.321Z,24.92
2023-05-21T17:02:49.320Z,24.98
2023-05-21T17:13:27.558Z,25.02
2023-05-21T17:18:47.313Z,24.99
2023-05-21T17:24:05.979Z,24.91
2023-05-21T17:29:24.701Z,24.81
2023-05-21T17:40:03.049Z,24.5
2023-05-21T17:45:22.306Z,24.19
2023-05-21T17:56:00.650Z,23.59
2023-05-21T18:01:20.158Z,23.23
2023-05-21T18:11:59.912Z,22.48
2023-05-21T18:17:18.696Z,22.15
2023-05-21T18:23:52.846Z,21.88
2023-05-21T18:27:58.787Z,21.63
2023-05-21T18:38:37.495Z,21.07
2023-05-21T18:43:56.932Z,20.71
2023-05-21T18:54:34.988Z,20.12
2023-05-21T18:59:54.340Z,19.86
2023-05-21T19:05:13.820Z,19.66
2023-05-21T19:10:32.720Z,19.54
2023-05-21T19:15:51.617Z,19.24
2023-05-21T19:21:11.197Z,19
2023-05-21T19:26:30.041Z,18.78
2023-05-21T19:37:06.725Z,18.33
2023-05-21T19:42:26.154Z,18.21
2023-05-21T19:53:04.288Z,17.84
2023-05-21T19:58:23.288Z,17.54
2023-05-21T20:03:43.030Z,17.43
2023-05-21T20:09:01.787Z,17.31
2023-05-21T20:15:35.960Z,17.03
2023-05-21T20:19:42.159Z,16.79
2023-05-21T20:25:00.704Z,16.59
2023-05-21T20:35:39.391Z,16.54
2023-05-21T20:40:57.859Z,16.45
2023-05-21T20:46:16.901Z,16.24
2023-05-21T20:51:35.633Z,16
2023-05-21T21:02:14.151Z,15.66
2023-05-21T21:07:33.037Z,15.53
2023-05-21T21:18:11.964Z,15.36
2023-05-21T21:23:31.507Z,15.35
2023-05-21T21:28:50.689Z,15.25
2023-05-21T21:34:10.310Z,15.07
2023-05-21T21:39:29.784Z,14.87
2023-05-21T21:44:48.846Z,14.68
2023-05-21T21:50:08.083Z,14.6
2023-05-21T21:57:06.656Z,14.53
2023-05-21T22:00:48.006Z,14.44
2023-05-21T22:06:06.936Z,14.43
2023-05-21T22:16:44.676Z,14.16
2023-05-21T22:22:03.458Z,14.12
2023-05-21T22:27:22.257Z,13.99
2023-05-21T22:32:41.609Z,13.91
2023-05-21T22:41:14.617Z,13.86
2023-05-21T22:43:18.154Z,13.79
2023-05-21T22:50:16.816Z,13.58
2023-05-21T22:59:16.321Z,13.23
2023-05-21T22:59:44.284Z,13.38
2023-05-21T23:10:22.412Z,13.09
2023-05-21T23:15:41.994Z,13.16
2023-05-21T23:26:21.084Z,13.31
2023-05-21T23:31:40.219Z,13.28
2023-05-21T23:42:18.665Z,12.95
2023-05-21T23:47:37.080Z,12.96
2023-05-21T23:52:56.191Z,12.96
2023-05-21T23:58:15.412Z,12.96
